createdAt,value
2019-03-06T00:00:58.198Z,2.20
2019-03-06T00:03:27.815Z,2.30
2019-03-06T00:05:57.493Z,2.20
2019-03-06T00:08:27.146Z,2.20
2019-03-06T00:10:56.761Z,2.20
2019-03-06T00:13:27.718Z,2.20
2019-03-06T00:15:57.331Z,2.20
2019-03-06T00:18:27.019Z,2.20
2019-03-06T00:20:56.678Z,2.20
2019-03-06T00:23:26.314Z,2.20
2019-03-06T00:25:55.994Z,2.10
2019-03-06T00:28:25.620Z,2.10
2019-03-06T00:30:55.249Z,2.10
2019-03-06T00:33:24.900Z,2.10
2019-03-06T00:35:54.568Z,2.10
2019-03-06T00:38:24.246Z,2.10
2019-03-06T00:40:59.397Z,2.10
2019-03-06T00:43:29.046Z,2.20
2019-03-06T00:45:58.660Z,2.20
2019-03-06T00:48:28.359Z,2.10
2019-03-06T00:50:58.015Z,2.20
2019-03-06T00:53:27.737Z,2.20
2019-03-06T00:55:57.392Z,2.10
2019-03-06T00:58:27.126Z,2.10
2019-03-06T01:00:56.799Z,2.10
2019-03-06T01:03:27.771Z,2.10
2019-03-06T01:05:57.427Z,2.10
2019-03-06T01:08:27.115Z,2.10
2019-03-06T01:10:56.772Z,2.10
2019-03-06T01:13:26.429Z,2.10
2019-03-06T01:15:56.121Z,2.10
2019-03-06T01:18:25.971Z,2.00
2019-03-06T01:20:55.635Z,2.00
2019-03-06T01:23:25.305Z,2.10
2019-03-06T01:25:54.969Z,2.10
2019-03-06T01:28:24.648Z,2.10
2019-03-06T01:30:55.602Z,2.10
2019-03-06T01:33:29.551Z,2.10
2019-03-06T01:36:04.385Z,2.10
2019-03-06T01:38:39.373Z,2.10
2019-03-06T01:41:50.039Z,2.10
2019-03-06T01:44:24.902Z,2.10
2019-03-06T01:46:54.575Z,2.10
2019-03-06T01:49:24.282Z,2.20
2019-03-06T01:51:55.230Z,2.10
2019-03-06T01:54:24.937Z,2.10
2019-03-06T01:56:54.621Z,2.10
2019-03-06T01:59:24.305Z,2.10
2019-03-06T02:01:53.952Z,2.20
2019-03-06T02:04:23.638Z,2.20
2019-03-06T02:06:53.327Z,2.10
2019-03-06T02:09:22.967Z,2.10
2019-03-06T02:11:52.673Z,2.10
2019-03-06T02:14:22.339Z,2.10
2019-03-06T02:16:52.052Z,2.10
2019-03-06T02:19:21.751Z,2.10
2019-03-06T02:21:51.396Z,2.10
2019-03-06T02:24:21.090Z,2.10
2019-03-06T02:26:50.787Z,2.10
2019-03-06T02:29:20.452Z,2.10
2019-03-06T02:31:50.115Z,2.10
2019-03-06T02:34:19.856Z,2.10
2019-03-06T02:36:49.536Z,2.10
2019-03-06T02:39:19.218Z,2.10
2019-03-06T02:41:49.129Z,2.20
2019-03-06T02:44:18.819Z,2.20
2019-03-06T02:46:48.558Z,2.20
2019-03-06T02:49:18.266Z,2.20
2019-03-06T02:51:47.944Z,2.10
2019-03-06T02:54:17.630Z,2.20
2019-03-06T02:56:47.294Z,2.20
2019-03-06T02:59:21.224Z,2.20
2019-03-06T03:02:04.308Z,2.20
2019-03-06T03:04:39.653Z,2.20
2019-03-06T03:07:12.356Z,2.20
2019-03-06T03:09:42.073Z,2.20
2019-03-06T03:12:11.751Z,2.20
2019-03-06T03:14:41.398Z,2.30
2019-03-06T03:17:11.204Z,2.30
2019-03-06T03:19:41.015Z,2.30
2019-03-06T03:22:10.644Z,2.30
2019-03-06T03:24:40.291Z,2.30
2019-03-06T03:27:09.973Z,2.30
2019-03-06T03:29:39.628Z,2.40
2019-03-06T03:32:09.305Z,2.40
2019-03-06T03:34:39.032Z,2.40
2019-03-06T03:37:08.697Z,2.40
2019-03-06T03:39:38.373Z,2.40
2019-03-06T03:42:08.079Z,2.40
2019-03-06T03:44:37.780Z,2.40
2019-03-06T03:47:07.477Z,2.40
2019-03-06T03:49:37.159Z,2.40
2019-03-06T03:52:06.857Z,2.30
2019-03-06T03:54:36.534Z,2.30
2019-03-06T03:57:06.203Z,2.30
2019-03-06T03:59:35.872Z,2.30
2019-03-06T04:02:05.545Z,2.30
2019-03-06T04:04:35.204Z,2.40
2019-03-06T04:07:04.891Z,2.40
2019-03-06T04:09:34.590Z,2.30
2019-03-06T04:12:04.935Z,2.30
2019-03-06T04:14:34.617Z,2.30
2019-03-06T04:17:04.320Z,2.30
2019-03-06T04:19:35.190Z,2.30
2019-03-06T04:22:04.843Z,2.20
2019-03-06T04:24:34.469Z,2.20
2019-03-06T04:27:05.308Z,2.20
2019-03-06T04:29:34.935Z,2.20
2019-03-06T04:32:04.682Z,2.20
2019-03-06T04:34:34.253Z,2.20
2019-03-06T04:37:04.181Z,2.20
2019-03-06T04:39:33.976Z,2.20
2019-03-06T04:42:03.649Z,2.20
2019-03-06T04:44:33.300Z,2.20
2019-03-06T04:47:02.962Z,2.20
2019-03-06T04:49:33.901Z,2.10
2019-03-06T04:52:03.510Z,2.10
2019-03-06T04:54:33.161Z,2.10
2019-03-06T04:57:02.777Z,2.10
2019-03-06T04:59:32.411Z,2.10
2019-03-06T05:02:02.038Z,2.10
2019-03-06T05:04:31.790Z,2.10
2019-03-06T05:07:01.394Z,2.20
2019-03-06T05:09:31.020Z,2.20
2019-03-06T05:12:00.701Z,2.20
2019-03-06T05:14:30.334Z,2.20
2019-03-06T05:17:41.457Z,2.20
2019-03-06T05:20:11.070Z,2.20
2019-03-06T05:22:40.748Z,2.20
2019-03-06T05:25:10.483Z,2.20
2019-03-06T05:27:41.463Z,2.30
2019-03-06T05:30:11.276Z,2.20
2019-03-06T05:32:40.927Z,2.20
2019-03-06T05:35:17.371Z,2.20
2019-03-06T05:37:53.575Z,2.30
2019-03-06T05:40:23.283Z,2.30
2019-03-06T05:42:52.894Z,2.30
2019-03-06T05:45:22.574Z,2.30
2019-03-06T05:47:52.194Z,2.40
2019-03-06T05:50:21.873Z,2.40
2019-03-06T05:52:51.497Z,2.40
2019-03-06T05:55:21.125Z,2.40
2019-03-06T05:57:51.974Z,2.40
2019-03-06T06:00:21.718Z,2.40
2019-03-06T06:02:51.385Z,2.50
2019-03-06T06:05:21.002Z,2.50
2019-03-06T06:07:50.616Z,2.50
2019-03-06T06:10:25.214Z,2.60
2019-03-06T06:12:54.837Z,2.60
2019-03-06T06:15:24.462Z,2.60
2019-03-06T06:17:54.103Z,2.70
2019-03-06T06:20:23.730Z,2.80
2019-03-06T06:23:04.082Z,2.80
2019-03-06T06:25:34.114Z,2.90
2019-03-06T06:28:03.779Z,2.90
2019-03-06T06:30:33.422Z,2.90
2019-03-06T06:33:03.029Z,3.00
2019-03-06T06:35:32.703Z,3.00
2019-03-06T06:38:02.319Z,3.00
2019-03-06T06:40:33.271Z,3.00
2019-03-06T06:43:02.911Z,3.10
2019-03-06T06:45:32.566Z,3.10
2019-03-06T06:48:20.727Z,3.20
2019-03-06T06:51:08.010Z,3.30
2019-03-06T06:53:42.002Z,3.30
2019-03-06T06:56:39.355Z,3.30
2019-03-06T06:59:15.246Z,3.30
2019-03-06T07:02:20.723Z,3.30
2019-03-06T07:05:05.229Z,3.40
2019-03-06T07:07:41.226Z,3.40
2019-03-06T07:10:16.265Z,3.40
2019-03-06T07:12:51.171Z,3.40
2019-03-06T07:15:25.313Z,3.40
2019-03-06T07:18:01.290Z,3.50
2019-03-06T07:20:37.365Z,3.50
2019-03-06T07:23:26.238Z,3.50
2019-03-06T07:26:00.106Z,3.50
2019-03-06T07:28:35.105Z,3.60
2019-03-06T07:31:16.942Z,3.60
2019-03-06T07:34:50.766Z,3.70
2019-03-06T07:37:30.788Z,3.80
2019-03-06T07:40:04.659Z,3.90
2019-03-06T07:42:48.632Z,4.00
2019-03-06T07:46:06.770Z,4.20
2019-03-06T07:48:52.439Z,4.50
2019-03-06T07:53:32.200Z,4.90
2019-03-06T07:56:06.989Z,5.50
2019-03-06T07:58:51.203Z,7.20
2019-03-06T08:01:21.095Z,8.10
2019-03-06T08:03:57.003Z,9.00
2019-03-06T08:06:26.657Z,9.60
2019-03-06T08:08:56.292Z,9.90
2019-03-06T08:11:31.059Z,10.00
2019-03-06T08:14:10.560Z,10.30
2019-03-06T08:16:52.427Z,11.10
2019-03-06T08:19:29.248Z,12.10
2019-03-06T08:22:05.022Z,13.20
2019-03-06T08:24:39.214Z,14.30
2019-03-06T08:27:08.905Z,15.60
2019-03-06T08:29:38.522Z,16.50
2019-03-06T08:32:13.279Z,16.70
2019-03-06T08:34:45.354Z,16.40
2019-03-06T08:37:15.010Z,16.00
2019-03-06T08:39:44.670Z,15.10
2019-03-06T08:42:14.287Z,13.80
2019-03-06T08:44:45.058Z,12.50
2019-03-06T08:48:17.954Z,11.30
2019-03-06T08:50:53.716Z,10.10
2019-03-06T08:53:27.617Z,8.90
2019-03-06T08:56:04.479Z,8.40
2019-03-06T08:58:40.394Z,7.90
2019-03-06T09:01:22.902Z,7.60
2019-03-06T09:04:00.729Z,7.40
2019-03-06T09:06:36.626Z,7.20
2019-03-06T09:09:13.604Z,7.20
2019-03-06T09:11:48.344Z,7.30
2019-03-06T09:14:22.199Z,7.40
2019-03-06T09:17:01.046Z,7.60
2019-03-06T09:19:36.819Z,7.60
2019-03-06T09:22:14.995Z,7.90
2019-03-06T09:24:50.754Z,8.00
2019-03-06T09:27:26.994Z,8.00
2019-03-06T09:30:03.377Z,8.00
2019-03-06T09:32:45.198Z,7.80
2019-03-06T09:35:22.934Z,7.60
2019-03-06T09:37:58.833Z,7.50
2019-03-06T09:40:35.722Z,7.70
2019-03-06T09:43:10.707Z,8.10
2019-03-06T09:46:17.253Z,8.40
2019-03-06T09:48:58.543Z,8.80
2019-03-06T09:51:49.638Z,9.40
2019-03-06T09:54:25.523Z,9.80
2019-03-06T09:56:59.548Z,9.80
2019-03-06T09:59:33.480Z,10.80
2019-03-06T10:02:11.174Z,11.10
2019-03-06T10:04:45.884Z,10.50
2019-03-06T10:07:25.233Z,10.10
2019-03-06T10:10:16.278Z,10.00
2019-03-06T10:12:56.314Z,10.00
2019-03-06T10:15:47.461Z,10.10
2019-03-06T10:18:24.032Z,10.20
2019-03-06T10:20:53.665Z,10.00
2019-03-06T10:23:23.325Z,9.70
2019-03-06T10:25:52.940Z,9.40
2019-03-06T10:28:27.887Z,9.30
2019-03-06T10:31:01.880Z,9.20
2019-03-06T10:33:23.257Z,9.10
2019-03-06T10:35:52.888Z,8.90
2019-03-06T10:38:22.495Z,8.60
2019-03-06T10:40:53.314Z,8.40
2019-03-06T10:43:24.186Z,8.20
2019-03-06T10:45:53.834Z,8.00
2019-03-06T10:48:23.478Z,7.80
2019-03-06T10:50:54.918Z,7.70
2019-03-06T10:53:24.544Z,7.70
2019-03-06T10:55:54.147Z,7.70
2019-03-06T10:58:23.793Z,7.80
2019-03-06T11:00:54.363Z,7.90
2019-03-06T11:03:28.299Z,7.90
2019-03-06T11:05:57.961Z,7.90
2019-03-06T11:08:27.615Z,8.00
2019-03-06T11:10:59.650Z,8.00
2019-03-06T11:13:29.294Z,8.10
2019-03-06T11:15:58.942Z,8.20
2019-03-06T11:18:28.601Z,8.20
2019-03-06T11:20:58.234Z,8.10
2019-03-06T11:23:27.850Z,8.00
2019-03-06T11:25:57.497Z,8.00
2019-03-06T11:28:27.136Z,8.00
2019-03-06T11:30:56.849Z,7.90
2019-03-06T11:33:26.458Z,8.00
2019-03-06T11:35:56.149Z,8.20
2019-03-06T11:38:27.183Z,8.20
2019-03-06T11:40:56.973Z,8.10
2019-03-06T11:43:26.575Z,8.10
2019-03-06T11:45:56.219Z,8.00
2019-03-06T11:48:27.146Z,8.00
2019-03-06T11:50:56.747Z,7.90
2019-03-06T11:53:27.362Z,7.80
2019-03-06T11:55:57.080Z,7.70
2019-03-06T11:58:26.705Z,7.60
2019-03-06T12:00:56.652Z,7.60
2019-03-06T12:03:26.321Z,7.60
2019-03-06T12:05:56.463Z,7.60
2019-03-06T12:11:02.034Z,7.70
2019-03-06T12:13:34.091Z,7.60
2019-03-06T12:16:04.929Z,7.50
2019-03-06T12:18:34.696Z,7.40
2019-03-06T12:21:04.392Z,7.30
2019-03-06T12:23:34.025Z,7.30
2019-03-06T12:26:04.979Z,7.30
2019-03-06T12:28:36.926Z,7.30
2019-03-06T12:31:07.767Z,7.40
2019-03-06T12:33:37.478Z,7.40
2019-03-06T12:36:07.123Z,7.40
2019-03-06T12:38:37.217Z,7.50
2019-03-06T12:41:06.849Z,7.60
2019-03-06T12:43:36.500Z,7.70
2019-03-06T12:46:23.363Z,8.00
2019-03-06T12:48:53.863Z,8.20
2019-03-06T12:51:23.791Z,8.30
2019-03-06T12:53:53.459Z,8.40
2019-03-06T12:56:25.646Z,8.40
2019-03-06T12:58:55.271Z,8.30
2019-03-06T13:01:26.138Z,8.40
2019-03-06T13:03:55.790Z,8.40
2019-03-06T13:06:26.975Z,8.40
2019-03-06T13:08:56.715Z,8.40
2019-03-06T13:11:26.391Z,8.40
2019-03-06T13:13:56.076Z,8.40
2019-03-06T13:16:27.097Z,8.30
2019-03-06T13:18:56.817Z,8.30
2019-03-06T13:21:26.622Z,8.20
2019-03-06T13:23:56.312Z,8.20
2019-03-06T13:26:26.034Z,8.20
2019-03-06T13:28:57.652Z,8.20
2019-03-06T13:31:26.711Z,8.20
2019-03-06T13:34:03.851Z,8.20
2019-03-06T13:36:33.525Z,8.20
2019-03-06T13:39:06.604Z,8.20
2019-03-06T13:41:32.938Z,8.20
2019-03-06T13:44:02.615Z,8.20
2019-03-06T13:46:32.300Z,8.20
2019-03-06T13:49:01.941Z,8.10
2019-03-06T13:51:31.562Z,8.00
2019-03-06T13:54:01.247Z,7.90
2019-03-06T13:56:30.939Z,8.00
2019-03-06T13:59:00.661Z,8.10
2019-03-06T14:01:30.478Z,8.10
2019-03-06T14:04:00.154Z,8.10
2019-03-06T14:06:30.069Z,8.00
2019-03-06T14:08:59.751Z,8.00
2019-03-06T14:11:29.433Z,7.90
2019-03-06T14:13:59.182Z,7.90
2019-03-06T14:16:28.858Z,7.80
2019-03-06T14:18:59.800Z,7.80
2019-03-06T14:21:29.588Z,7.70
2019-03-06T14:23:59.380Z,7.70
2019-03-06T14:26:29.105Z,7.70
2019-03-06T14:28:58.809Z,7.70
2019-03-06T14:31:28.479Z,7.70
2019-03-06T14:33:59.486Z,7.70
2019-03-06T14:36:30.221Z,7.70
2019-03-06T14:38:59.873Z,7.70
2019-03-06T14:41:29.876Z,7.70
2019-03-06T14:43:59.571Z,7.60
2019-03-06T14:46:29.222Z,7.60
2019-03-06T14:48:58.920Z,7.70
2019-03-06T14:51:28.580Z,7.60
2019-03-06T14:54:00.748Z,7.60
2019-03-06T14:56:30.409Z,7.60
2019-03-06T14:59:01.407Z,7.50
2019-03-06T15:01:33.618Z,7.50
2019-03-06T15:04:05.830Z,7.50
2019-03-06T15:06:35.525Z,7.50
2019-03-06T15:09:10.687Z,7.40
2019-03-06T15:11:40.368Z,7.40
2019-03-06T15:14:10.030Z,7.40
2019-03-06T15:16:39.687Z,7.30
2019-03-06T15:19:09.322Z,7.30
2019-03-06T15:21:40.183Z,7.30
2019-03-06T15:24:09.856Z,7.20
2019-03-06T15:26:40.248Z,7.20
2019-03-06T15:29:09.975Z,7.20
2019-03-06T15:31:39.750Z,7.20
2019-03-06T15:34:10.435Z,7.10
2019-03-06T15:36:39.369Z,7.10
2019-03-06T15:39:22.294Z,7.10
2019-03-06T15:42:00.104Z,7.00
2019-03-06T15:44:22.902Z,7.00
2019-03-06T15:46:52.595Z,7.00
2019-03-06T15:49:22.286Z,7.00
2019-03-06T15:51:54.375Z,6.90
2019-03-06T15:54:24.036Z,6.90
2019-03-06T15:56:53.689Z,6.90
2019-03-06T15:59:23.384Z,6.80
2019-03-06T16:01:54.294Z,6.80
2019-03-06T16:04:24.027Z,6.70
2019-03-06T16:06:54.348Z,6.70
2019-03-06T16:09:23.626Z,6.70
2019-03-06T16:11:54.612Z,6.70
2019-03-06T16:14:24.275Z,6.70
2019-03-06T16:16:53.896Z,6.60
2019-03-06T16:19:23.529Z,6.60
2019-03-06T16:21:53.177Z,6.60
2019-03-06T16:24:26.091Z,6.50
2019-03-06T16:26:55.817Z,6.50
2019-03-06T16:29:25.556Z,6.40
2019-03-06T16:31:55.472Z,6.40
2019-03-06T16:34:26.488Z,6.40
2019-03-06T16:36:56.164Z,6.40
2019-03-06T16:39:27.107Z,6.30
2019-03-06T16:41:56.772Z,6.30
2019-03-06T16:44:26.512Z,6.30
2019-03-06T16:47:06.166Z,6.30
2019-03-06T16:49:27.059Z,6.20
2019-03-06T16:51:56.844Z,6.20
2019-03-06T16:54:26.526Z,6.20
2019-03-06T16:56:57.391Z,6.20
2019-03-06T16:59:28.299Z,6.10
2019-03-06T17:01:59.241Z,6.10
2019-03-06T17:04:28.936Z,6.10
2019-03-06T17:07:01.109Z,6.10
2019-03-06T17:09:34.403Z,6.10
2019-03-06T17:12:04.147Z,6.10
2019-03-06T17:14:33.928Z,6.10
2019-03-06T17:17:03.727Z,6.10
2019-03-06T17:19:33.399Z,6.10
2019-03-06T17:22:03.116Z,6.00
2019-03-06T17:24:34.081Z,6.00
2019-03-06T17:27:06.294Z,6.00
2019-03-06T17:29:36.113Z,6.00
2019-03-06T17:32:05.864Z,6.00
2019-03-06T17:34:35.567Z,6.00
2019-03-06T17:37:05.244Z,6.00
2019-03-06T17:39:35.062Z,6.00
2019-03-06T17:42:07.293Z,6.00
2019-03-06T17:44:36.999Z,6.00
2019-03-06T17:47:06.742Z,6.00
2019-03-06T17:49:36.396Z,6.00
2019-03-06T17:52:07.454Z,6.10
2019-03-06T17:54:37.068Z,6.10
2019-03-06T17:57:09.255Z,6.20
2019-03-06T17:59:40.189Z,6.20
2019-03-06T18:02:10.050Z,6.20
2019-03-06T18:04:41.101Z,6.30
2019-03-06T18:07:10.773Z,6.30
2019-03-06T18:09:40.484Z,6.30
2019-03-06T18:12:10.192Z,6.30
2019-03-06T18:14:39.871Z,6.30
2019-03-06T18:17:10.809Z,6.40
2019-03-06T18:19:40.474Z,6.40
2019-03-06T18:22:10.219Z,6.40
2019-03-06T18:24:39.915Z,6.40
2019-03-06T18:27:09.639Z,6.40
2019-03-06T18:29:39.331Z,6.40
2019-03-06T18:32:08.992Z,6.40
2019-03-06T18:34:38.678Z,6.50
2019-03-06T18:37:09.503Z,6.50
2019-03-06T18:39:39.292Z,6.60
2019-03-06T18:42:10.195Z,6.60
2019-03-06T18:44:39.903Z,6.60
2019-03-06T18:47:09.548Z,6.70
2019-03-06T18:49:39.249Z,6.70
2019-03-06T18:52:08.980Z,6.80
2019-03-06T18:54:38.645Z,6.80
2019-03-06T18:57:08.309Z,6.90
2019-03-06T18:59:38.087Z,6.90
2019-03-06T19:02:07.729Z,6.90
2019-03-06T19:04:37.391Z,7.00
2019-03-06T19:07:07.045Z,7.00
2019-03-06T19:09:36.747Z,7.10
2019-03-06T19:12:06.413Z,7.10
2019-03-06T19:14:37.419Z,7.00
2019-03-06T19:17:07.101Z,7.00
2019-03-06T19:19:36.973Z,7.00
2019-03-06T19:22:06.648Z,7.00
2019-03-06T19:24:36.356Z,7.00
2019-03-06T19:27:07.271Z,7.00
2019-03-06T19:29:36.938Z,7.00
2019-03-06T19:32:06.627Z,7.00
2019-03-06T19:34:37.543Z,7.00
2019-03-06T19:37:07.199Z,7.00
2019-03-06T19:39:36.896Z,7.00
2019-03-06T19:42:06.568Z,7.10
2019-03-06T19:44:36.275Z,7.10
2019-03-06T19:47:06.030Z,7.10
2019-03-06T19:49:35.805Z,7.10
2019-03-06T19:52:05.538Z,7.10
2019-03-06T19:54:35.233Z,7.10
2019-03-06T19:57:04.931Z,7.10
2019-03-06T19:59:34.634Z,7.20
2019-03-06T20:02:06.796Z,7.10
2019-03-06T20:04:36.435Z,7.20
2019-03-06T20:07:06.091Z,7.20
2019-03-06T20:09:35.849Z,7.30
2019-03-06T20:12:08.579Z,7.30
2019-03-06T20:14:36.540Z,7.30
2019-03-06T20:17:09.976Z,7.30
2019-03-06T20:19:41.222Z,7.20
2019-03-06T20:22:10.941Z,7.20
2019-03-06T20:24:40.623Z,7.30
2019-03-06T20:27:10.419Z,7.30
2019-03-06T20:29:40.184Z,7.30
2019-03-06T20:32:09.864Z,7.30
2019-03-06T20:34:39.513Z,7.30
2019-03-06T20:43:58.264Z,7.30
2019-03-06T20:46:27.918Z,7.20
2019-03-06T20:48:57.582Z,7.20
2019-03-06T20:51:28.659Z,7.20
2019-03-06T20:53:58.373Z,7.20
2019-03-06T20:56:28.128Z,7.20
2019-03-06T20:58:57.886Z,7.20
2019-03-06T21:01:27.557Z,7.20
2019-03-06T21:03:58.704Z,7.20
2019-03-06T21:06:33.656Z,7.20
2019-03-06T21:08:59.404Z,7.20
2019-03-06T21:11:30.506Z,7.20
2019-03-06T21:14:00.344Z,7.10
2019-03-06T21:16:32.033Z,7.20
2019-03-06T21:19:01.064Z,7.10
2019-03-06T21:21:30.895Z,7.10
2019-03-06T21:24:00.618Z,7.10
2019-03-06T21:26:31.512Z,7.10
2019-03-06T21:29:01.208Z,7.20
2019-03-06T21:31:32.363Z,7.20
2019-03-06T21:34:02.020Z,7.20
2019-03-06T21:36:31.728Z,7.20
2019-03-06T21:39:02.468Z,7.20
2019-03-06T21:41:32.850Z,7.20
2019-03-06T21:44:02.635Z,7.30
2019-03-06T21:46:32.354Z,7.30
2019-03-06T21:49:02.074Z,7.30
2019-03-06T21:51:32.917Z,7.30
2019-03-06T21:54:02.610Z,7.40
2019-03-06T21:56:32.265Z,7.40
2019-03-06T21:59:01.959Z,7.40
2019-03-06T22:01:31.628Z,7.40
2019-03-06T22:04:01.340Z,7.40
2019-03-06T22:06:32.559Z,7.40
2019-03-06T22:09:02.248Z,7.40
2019-03-06T22:11:31.891Z,7.40
2019-03-06T22:14:02.862Z,7.40
2019-03-06T22:16:32.516Z,7.50
2019-03-06T22:19:05.811Z,7.50
2019-03-06T22:21:35.452Z,7.50
2019-03-06T22:24:05.103Z,7.50
2019-03-06T22:26:34.759Z,7.50
2019-03-06T22:29:04.398Z,7.60
2019-03-06T22:31:35.273Z,7.60
2019-03-06T22:34:04.923Z,7.60
2019-03-06T22:36:34.567Z,7.60
2019-03-06T22:39:07.315Z,7.60
2019-03-06T22:41:38.262Z,7.60
2019-03-06T22:44:07.893Z,7.60
2019-03-06T22:46:38.814Z,7.70
2019-03-06T22:49:08.452Z,7.70
2019-03-06T22:51:39.470Z,7.70
2019-03-06T22:54:09.150Z,7.70
2019-03-06T22:56:38.795Z,7.80
2019-03-06T22:59:08.470Z,7.80
2019-03-06T23:01:38.843Z,7.80
2019-03-06T23:04:08.550Z,7.80
2019-03-06T23:06:38.222Z,7.80
2019-03-06T23:09:09.968Z,7.80
2019-03-06T23:11:42.046Z,7.70
2019-03-06T23:14:11.717Z,7.80
2019-03-06T23:16:41.364Z,7.80
2019-03-06T23:19:11.039Z,7.80
2019-03-06T23:21:40.690Z,7.80
2019-03-06T23:24:10.325Z,7.80
2019-03-06T23:26:43.092Z,7.80
2019-03-06T23:29:11.472Z,7.70
2019-03-06T23:31:41.213Z,7.70
2019-03-06T23:34:10.909Z,7.70
2019-03-06T23:36:40.523Z,7.60
2019-03-06T23:39:12.494Z,7.60
2019-03-06T23:41:42.179Z,7.50
2019-03-06T23:44:11.881Z,7.50
2019-03-06T23:46:41.551Z,7.40
2019-03-06T23:49:11.209Z,7.40
2019-03-06T23:51:47.334Z,7.40
2019-03-06T23:54:16.967Z,7.40
2019-03-06T23:56:46.605Z,7.30
2019-03-06T23:59:16.230Z,7.30
